Time;durP1;ratioP1;P1;durP2;ratioP2;P2;SDS_P1;SDS_P2;PMS_P1;PMS_P2;Temp;Humidity;BMP_temperature;BMP_pressure;BME280_temperature;BME280_humidity;BME280_pressure;Samples;Min_cycle;Max_cycle;Signal;HPM_P1;HPM_P2
2022/10/27 00:01:25;;;;;;;;;;;11.20;99.90;;;;;;4995041;28;19967;-67
2022/10/27 00:03:50;;;;;;;;;;;11.20;99.90;;;;;;4980489;28;19926;-67
2022/10/27 00:06:16;;;;;;;;;;;11.20;99.90;;;;;;4979212;28;20027;-67
2022/10/27 00:08:41;;;;;;;;;;;11.20;99.90;;;;;;4981370;28;19933;-67
2022/10/27 00:11:07;;;;;;;;;;;11.20;99.90;;;;;;5000605;28;20362;-67
2022/10/27 00:13:33;;;;;;;;;;;11.10;99.90;;;;;;4989768;28;19932;-67
2022/10/27 00:15:59;;;;;;;;;;;11.10;99.90;;;;;;4984341;28;19975;-67
2022/10/27 00:18:25;;;;;;;;;;;11.10;99.90;;;;;;4988176;28;19921;-67
2022/10/27 00:21:04;;;;;;;;;;;11.10;99.90;;;;;;4981296;28;19932;-67
2022/10/27 00:23:30;;;;;;;;;;;11.00;99.90;;;;;;4977163;28;19940;-67
2022/10/27 00:25:56;;;;;;;;;;;11.00;99.90;;;;;;4990389;28;19926;-67
2022/10/27 00:28:21;;;;;;;;;;;11.00;99.90;;;;;;4987898;28;19925;-67
2022/10/27 00:30:47;;;;;;;;;;;11.00;99.90;;;;;;4989995;28;20271;-67
2022/10/27 00:33:13;;;;;;;;;;;10.90;99.90;;;;;;4994170;28;20549;-67
2022/10/27 00:35:38;;;;;;;;;;;10.90;99.90;;;;;;4985677;28;20545;-67
2022/10/27 00:38:03;;;;;;;;;;;10.90;99.90;;;;;;4988632;28;20020;-67
2022/10/27 00:40:34;;;;;;;;;;;10.90;99.90;;;;;;4992018;28;19928;-67
2022/10/27 00:43:00;;;;;;;;;;;10.80;99.90;;;;;;4988242;28;19928;-67
2022/10/27 00:45:25;;;;;;;;;;;10.80;99.90;;;;;;4987931;28;19929;-67
2022/10/27 00:47:51;;;;;;;;;;;10.80;99.90;;;;;;4981542;28;20425;-67
2022/10/27 00:50:18;;;;;;;;;;;10.80;99.90;;;;;;4988896;28;19925;-67
2022/10/27 00:52:44;;;;;;;;;;;10.80;99.90;;;;;;4983258;28;20411;-67
2022/10/27 00:55:12;;;;;;;;;;;10.80;99.90;;;;;;4987371;28;19941;-67
2022/10/27 00:57:38;;;;;;;;;;;10.70;99.90;;;;;;4994903;28;19925;-67
2022/10/27 01:00:04;;;;;;;;;;;10.70;99.90;;;;;;4992273;28;19930;-67
2022/10/27 01:02:30;;;;;;;;;;;10.70;99.90;;;;;;4974957;28;19929;-67
2022/10/27 01:04:59;;;;;;;;;;;10.70;99.90;;;;;;4991267;28;19933;-67
2022/10/27 01:07:26;;;;;;;;;;;10.80;99.90;;;;;;4993685;28;20014;-67
2022/10/27 01:09:51;;;;;;;;;;;10.70;99.90;;;;;;4988081;28;20279;-67
2022/10/27 01:12:17;;;;;;;;;;;10.80;99.90;;;;;;4990659;28;19929;-67
2022/10/27 01:14:42;;;;;;;;;;;10.80;99.90;;;;;;4992602;28;19941;-67
2022/10/27 01:17:31;;;;;;;;;;;10.80;99.90;;;;;;4989282;28;19926;-67
2022/10/27 01:20:06;;;;;;;;;;;10.80;99.90;;;;;;4991949;28;19922;-67
2022/10/27 01:22:46;;;;;;;;;;;10.80;99.90;;;;;;4991159;28;19921;-67
2022/10/27 01:25:12;;;;;;;;;;;10.80;99.90;;;;;;4975008;28;20008;-67
2022/10/27 01:27:51;;;;;;;;;;;10.80;99.90;;;;;;5009365;28;20024;-67
2022/10/27 01:30:18;;;;;;;;;;;10.90;99.90;;;;;;4985161;28;19922;-67
2022/10/27 01:32:49;;;;;;;;;;;11.00;99.90;;;;;;4985283;28;19929;-67
2022/10/27 01:35:34;;;;;;;;;;;11.00;99.90;;;;;;4988532;28;19954;-66
2022/10/27 01:38:18;;;;;;;;;;;11.10;99.90;;;;;;4993317;28;19922;-67
2022/10/27 01:40:55;;;;;;;;;;;11.20;99.90;;;;;;4969359;28;19967;-67
2022/10/27 01:43:23;;;;;;;;;;;11.30;99.90;;;;;;4983904;28;19996;-67
2022/10/27 01:45:49;;;;;;;;;;;11.30;99.90;;;;;;4983801;28;20287;-67
2022/10/27 01:48:15;;;;;;;;;;;11.40;99.90;;;;;;4983484;28;19939;-67
2022/10/27 01:50:41;;;;;;;;;;;11.40;99.90;;;;;;4975811;28;19976;-67
2022/10/27 01:53:08;;;;;;;;;;;11.50;99.90;;;;;;5007237;28;20330;-67
2022/10/27 01:55:52;;;;;;;;;;;11.50;99.90;;;;;;4989073;28;20004;-67
2022/10/27 01:58:36;;;;;;;;;;;11.60;99.90;;;;;;4993936;28;19929;-67
2022/10/27 02:01:21;;;;;;;;;;;11.60;99.90;;;;;;4989488;28;19921;-67
2022/10/27 02:04:03;;;;;;;;;;;11.60;99.90;;;;;;4975313;28;19925;-67
2022/10/27 02:06:40;;;;;;;;;;;11.70;99.90;;;;;;4989745;28;19921;-67
2022/10/27 02:09:08;;;;;;;;;;;11.70;99.90;;;;;;5007795;28;19928;-67
2022/10/27 02:11:36;;;;;;;;;;;11.70;99.90;;;;;;4992634;28;20311;-67
2022/10/27 02:14:02;;;;;;;;;;;11.60;99.90;;;;;;4989082;28;20609;-67
2022/10/27 02:16:29;;;;;;;;;;;11.60;99.90;;;;;;4985623;28;20004;-67
2022/10/27 02:19:04;;;;;;;;;;;11.60;99.90;;;;;;4989131;28;19922;-67
2022/10/27 02:21:31;;;;;;;;;;;11.60;99.90;;;;;;5009017;28;19929;-67
2022/10/27 02:23:57;;;;;;;;;;;11.60;99.90;;;;;;4993715;28;19922;-67
2022/10/27 02:26:25;;;;;;;;;;;11.60;99.90;;;;;;4987655;28;19921;-67
2022/10/27 02:28:54;;;;;;;;;;;11.60;99.90;;;;;;4986855;28;19921;-67
2022/10/27 02:31:22;;;;;;;;;;;11.60;99.90;;;;;;4988996;28;20307;-67
2022/10/27 02:33:48;;;;;;;;;;;11.50;99.90;;;;;;4988667;28;19967;-67
2022/10/27 02:36:13;;;;;;;;;;;11.50;99.90;;;;;;4988272;28;19937;-67
2022/10/27 02:38:39;;;;;;;;;;;11.50;99.90;;;;;;4971323;28;19926;-67
2022/10/27 02:41:04;;;;;;;;;;;11.50;99.90;;;;;;5007406;28;19925;-67
2022/10/27 02:43:30;;;;;;;;;;;11.40;99.90;;;;;;4992533;28;19922;-67
2022/10/27 02:45:55;;;;;;;;;;;11.40;99.90;;;;;;4988523;28;19976;-67
2022/10/27 02:48:21;;;;;;;;;;;11.40;99.90;;;;;;4988305;28;20000;-67
2022/10/27 02:50:46;;;;;;;;;;;11.40;99.90;;;;;;4988239;28;20275;-67
2022/10/27 02:53:12;;;;;;;;;;;11.30;99.90;;;;;;4992257;28;20024;-67
2022/10/27 02:55:37;;;;;;;;;;;11.30;99.90;;;;;;4990188;28;19955;-67
2022/10/27 02:58:03;;;;;;;;;;;11.40;99.90;;;;;;5006823;28;19937;-67
2022/10/27 03:00:28;;;;;;;;;;;11.40;99.90;;;;;;4985707;28;20017;-67
2022/10/27 03:02:54;;;;;;;;;;;11.40;99.90;;;;;;5010021;28;19934;-67
2022/10/27 03:05:19;;;;;;;;;;;11.40;99.90;;;;;;4983862;28;19922;-67
2022/10/27 03:07:44;;;;;;;;;;;11.40;99.90;;;;;;4987374;28;19941;-67
2022/10/27 03:10:10;;;;;;;;;;;11.40;99.90;;;;;;4988937;28;19921;-67
2022/10/27 03:12:35;;;;;;;;;;;11.30;99.90;;;;;;4983135;28;19938;-67
2022/10/27 03:15:01;;;;;;;;;;;11.40;99.90;;;;;;4989880;28;19976;-67
2022/10/27 03:17:26;;;;;;;;;;;11.40;99.90;;;;;;4985640;28;20265;-67
2022/10/27 03:19:52;;;;;;;;;;;11.50;99.90;;;;;;4996153;28;19926;-67
2022/10/27 03:22:17;;;;;;;;;;;11.40;99.90;;;;;;4984483;28;19936;-67
2022/10/27 03:24:43;;;;;;;;;;;11.40;99.90;;;;;;4994186;28;19937;-67
2022/10/27 03:27:08;;;;;;;;;;;11.40;99.90;;;;;;4994269;28;19928;-67
2022/10/27 03:29:34;;;;;;;;;;;11.30;99.90;;;;;;4994374;28;20383;-67
2022/10/27 03:31:59;;;;;;;;;;;11.30;99.90;;;;;;4988507;28;19977;-67
2022/10/27 03:34:24;;;;;;;;;;;11.30;99.90;;;;;;4988808;28;19964;-67
2022/10/27 03:36:50;;;;;;;;;;;11.30;99.90;;;;;;4993116;28;19921;-67
2022/10/27 03:39:15;;;;;;;;;;;11.30;99.90;;;;;;4976435;28;19921;-67
2022/10/27 03:41:41;;;;;;;;;;;11.30;99.90;;;;;;4989089;28;19929;-67
2022/10/27 03:44:06;;;;;;;;;;;11.30;99.90;;;;;;4989749;28;19926;-67
2022/10/27 03:46:32;;;;;;;;;;;11.30;99.90;;;;;;4976931;28;20252;-67
2022/10/27 03:48:57;;;;;;;;;;;11.30;99.90;;;;;;4994289;28;20482;-67
2022/10/27 03:51:23;;;;;;;;;;;11.30;99.90;;;;;;4995320;28;19925;-67
2022/10/27 03:53:48;;;;;;;;;;;11.40;99.90;;;;;;4994598;28;19921;-67
2022/10/27 03:56:14;;;;;;;;;;;11.30;99.90;;;;;;4979328;28;19976;-67
2022/10/27 03:58:39;;;;;;;;;;;11.30;99.90;;;;;;4996209;28;20363;-67
2022/10/27 04:01:05;;;;;;;;;;;11.30;99.90;;;;;;4992992;28;19943;-67
2022/10/27 04:03:31;;;;;;;;;;;11.30;99.90;;;;;;4987855;28;20012;-67
2022/10/27 04:05:56;;;;;;;;;;;11.30;99.90;;;;;;4993913;28;20004;-67
2022/10/27 04:08:22;;;;;;;;;;;11.20;99.90;;;;;;4995191;28;19976;-67
2022/10/27 04:10:47;;;;;;;;;;;11.20;99.90;;;;;;4978504;28;19968;-67
2022/10/27 04:13:13;;;;;;;;;;;11.20;99.90;;;;;;4996065;28;19972;-67
2022/10/27 04:15:38;;;;;;;;;;;11.20;99.90;;;;;;4989962;28;20342;-67
2022/10/27 04:18:04;;;;;;;;;;;11.20;99.90;;;;;;4994195;28;19921;-67
2022/10/27 04:20:30;;;;;;;;;;;11.20;99.90;;;;;;4995267;28;19921;-67
2022/10/27 04:22:56;;;;;;;;;;;11.20;99.90;;;;;;4988971;28;19929;-67
2022/10/27 04:25:21;;;;;;;;;;;11.20;99.90;;;;;;4988577;28;19933;-67
2022/10/27 04:27:47;;;;;;;;;;;11.20;99.90;;;;;;4987388;28;19926;-67
2022/10/27 04:30:12;;;;;;;;;;;11.20;99.90;;;;;;4992536;28;20295;-67
2022/10/27 04:32:38;;;;;;;;;;;11.10;99.90;;;;;;4972194;28;19965;-67
2022/10/27 04:35:07;;;;;;;;;;;11.20;99.90;;;;;;4994702;28;19933;-67
2022/10/27 04:37:33;;;;;;;;;;;11.20;99.90;;;;;;5007004;28;20584;-67
2022/10/27 04:39:58;;;;;;;;;;;11.20;99.90;;;;;;4991176;28;19922;-67
2022/10/27 04:42:24;;;;;;;;;;;11.20;99.90;;;;;;4994116;28;19925;-68
2022/10/27 04:44:49;;;;;;;;;;;11.20;99.90;;;;;;4975869;28;19921;-68
2022/10/27 04:47:15;;;;;;;;;;;11.10;99.90;;;;;;5002733;28;19930;-68
2022/10/27 04:49:40;;;;;;;;;;;11.20;99.90;;;;;;4975390;28;20057;-68
2022/10/27 04:52:06;;;;;;;;;;;11.20;99.90;;;;;;4990599;28;20284;-68
2022/10/27 04:54:31;;;;;;;;;;;11.20;99.90;;;;;;4994177;28;20063;-68
2022/10/27 04:56:57;;;;;;;;;;;11.20;99.90;;;;;;4991559;28;19922;-68
2022/10/27 04:59:22;;;;;;;;;;;11.20;99.90;;;;;;4991975;28;19922;-68
2022/10/27 05:01:48;;;;;;;;;;;11.20;99.90;;;;;;4991050;28;19922;-68
2022/10/27 05:04:14;;;;;;;;;;;11.20;99.90;;;;;;4990602;28;19939;-68
2022/10/27 05:06:39;;;;;;;;;;;11.20;99.90;;;;;;5005249;28;20011;-68
2022/10/27 05:09:05;;;;;;;;;;;11.20;99.90;;;;;;4990473;28;19973;-68
2022/10/27 05:11:30;;;;;;;;;;;11.20;99.90;;;;;;4984054;28;20372;-68
2022/10/27 05:13:56;;;;;;;;;;;11.20;99.90;;;;;;4976090;28;19922;-67
2022/10/27 05:16:21;;;;;;;;;;;11.20;99.90;;;;;;4994335;28;19984;-67
2022/10/27 05:18:47;;;;;;;;;;;11.20;99.90;;;;;;4976232;28;19928;-67
2022/10/27 05:21:12;;;;;;;;;;;11.20;99.90;;;;;;4984047;28;19946;-67
2022/10/27 05:23:38;;;;;;;;;;;11.20;99.90;;;;;;4987044;28;19922;-67
2022/10/27 05:26:03;;;;;;;;;;;11.20;99.90;;;;;;4977354;28;19952;-67
2022/10/27 05:28:29;;;;;;;;;;;11.20;99.90;;;;;;4972557;28;19922;-67
2022/10/27 05:30:58;;;;;;;;;;;11.20;99.90;;;;;;4985270;28;19961;-67
2022/10/27 05:33:24;;;;;;;;;;;11.20;99.90;;;;;;4994674;28;20287;-67
2022/10/27 05:35:50;;;;;;;;;;;11.20;99.90;;;;;;4982330;28;19926;-67
2022/10/27 05:38:16;;;;;;;;;;;11.20;99.90;;;;;;4983878;28;19925;-67
2022/10/27 05:40:41;;;;;;;;;;;11.20;99.90;;;;;;4982578;28;19980;-67
2022/10/27 05:43:08;;;;;;;;;;;11.20;99.90;;;;;;4968949;28;20355;-67
2022/10/27 05:45:33;;;;;;;;;;;11.20;99.90;;;;;;4985121;28;19925;-67
2022/10/27 05:48:00;;;;;;;;;;;11.20;99.90;;;;;;4994305;28;19925;-67
2022/10/27 05:50:26;;;;;;;;;;;11.20;99.90;;;;;;4990753;28;19926;-67
2022/10/27 05:52:52;;;;;;;;;;;11.20;99.90;;;;;;4990025;28;20501;-67
2022/10/27 05:55:17;;;;;;;;;;;11.30;99.90;;;;;;4994051;28;19953;-67
2022/10/27 05:57:51;;;;;;;;;;;11.30;99.90;;;;;;4978443;28;19929;-67
2022/10/27 06:00:16;;;;;;;;;;;11.30;99.90;;;;;;5002793;28;19928;-67
2022/10/27 06:02:42;;;;;;;;;;;11.30;99.90;;;;;;4984810;28;19925;-67
2022/10/27 06:05:07;;;;;;;;;;;11.30;99.90;;;;;;4980616;28;20004;-67
2022/10/27 06:07:33;;;;;;;;;;;11.30;99.90;;;;;;4983640;28;20131;-67
2022/10/27 06:09:58;;;;;;;;;;;11.40;99.90;;;;;;4976029;28;19925;-67
2022/10/27 06:12:24;;;;;;;;;;;11.40;99.90;;;;;;4996490;28;19932;-67
2022/10/27 06:14:49;;;;;;;;;;;11.40;99.90;;;;;;4986719;28;19971;-67
2022/10/27 06:17:14;;;;;;;;;;;11.30;99.90;;;;;;4981070;28;19922;-67
2022/10/27 06:19:40;;;;;;;;;;;11.40;99.90;;;;;;4974825;28;20292;-67
2022/10/27 06:22:05;;;;;;;;;;;11.40;99.90;;;;;;4979800;28;19921;-67
2022/10/27 06:24:31;;;;;;;;;;;11.40;99.90;;;;;;4974892;28;19929;-68
2022/10/27 06:26:56;;;;;;;;;;;11.50;99.90;;;;;;4990278;28;19921;-68
2022/10/27 06:29:22;;;;;;;;;;;11.50;99.90;;;;;;4975548;28;19925;-68
2022/10/27 06:31:47;;;;;;;;;;;11.50;99.90;;;;;;4985494;28;20419;-68
2022/10/27 06:34:13;;;;;;;;;;;11.50;99.90;;;;;;4986685;28;19930;-67
2022/10/27 06:36:38;;;;;;;;;;;11.60;99.90;;;;;;4985002;28;19925;-67
2022/10/27 06:39:04;;;;;;;;;;;11.60;99.90;;;;;;4992101;28;19968;-67
2022/10/27 06:41:29;;;;;;;;;;;11.60;99.90;;;;;;4992221;28;20283;-68
2022/10/27 06:43:55;;;;;;;;;;;11.60;99.90;;;;;;4991287;28;19961;-67
2022/10/27 06:46:20;;;;;;;;;;;11.60;99.90;;;;;;4983115;28;19922;-67
2022/10/27 06:48:45;;;;;;;;;;;11.60;99.90;;;;;;4990580;28;20319;-68
2022/10/27 06:51:11;;;;;;;;;;;11.60;99.90;;;;;;4987544;28;19921;-68
2022/10/27 06:53:36;;;;;;;;;;;11.70;99.90;;;;;;5009666;28;20377;-68
2022/10/27 06:56:02;;;;;;;;;;;11.70;99.90;;;;;;4979177;28;19936;-68
2022/10/27 06:58:27;;;;;;;;;;;11.80;99.90;;;;;;4987651;28;19981;-68
2022/10/27 07:00:53;;;;;;;;;;;11.80;99.90;;;;;;5000810;28;19960;-68
2022/10/27 07:03:18;;;;;;;;;;;11.80;99.90;;;;;;4980124;28;19940;-68
2022/10/27 07:05:44;;;;;;;;;;;11.90;99.90;;;;;;4984896;28;19921;-68
2022/10/27 07:08:09;;;;;;;;;;;12.00;99.90;;;;;;4982857;28;19928;-67
2022/10/27 07:10:35;;;;;;;;;;;12.00;99.90;;;;;;4994126;28;20419;-68
2022/10/27 07:13:01;;;;;;;;;;;12.10;99.90;;;;;;4990436;28;19921;-68
2022/10/27 07:15:27;;;;;;;;;;;12.20;99.90;;;;;;4993823;28;20362;-68
2022/10/27 07:17:57;;;;;;;;;;;12.20;99.90;;;;;;4988577;28;19934;-68
2022/10/27 07:20:22;;;;;;;;;;;12.30;99.90;;;;;;4988535;28;19922;-68
2022/10/27 07:22:48;;;;;;;;;;;12.40;99.90;;;;;;4985826;28;19926;-68
2022/10/27 07:25:13;;;;;;;;;;;12.50;99.90;;;;;;4988513;28;19940;-68
2022/10/27 07:27:39;;;;;;;;;;;12.60;99.90;;;;;;4988581;28;20372;-67
2022/10/27 07:30:04;;;;;;;;;;;12.60;99.90;;;;;;4993913;28;19976;-67
2022/10/27 07:32:30;;;;;;;;;;;12.70;99.90;;;;;;5015846;28;19929;-68
2022/10/27 07:34:55;;;;;;;;;;;12.80;99.90;;;;;;4977776;28;19926;-67
2022/10/27 07:37:21;;;;;;;;;;;12.80;99.90;;;;;;4990147;28;19921;-67
2022/10/27 07:39:46;;;;;;;;;;;12.80;99.90;;;;;;4991751;28;20020;-68
2022/10/27 07:42:12;;;;;;;;;;;12.90;99.90;;;;;;4989894;28;20393;-67
2022/10/27 07:44:37;;;;;;;;;;;13.00;99.90;;;;;;5012114;28;19932;-67
2022/10/27 07:47:03;;;;;;;;;;;13.00;99.90;;;;;;4989438;28;19934;-67
2022/10/27 07:49:28;;;;;;;;;;;13.10;99.90;;;;;;4992181;28;19921;-68
2022/10/27 07:51:54;;;;;;;;;;;13.10;99.90;;;;;;4989837;28;19934;-67
2022/10/27 07:54:19;;;;;;;;;;;13.20;99.90;;;;;;4982804;28;19929;-67
2022/10/27 07:56:46;;;;;;;;;;;13.20;99.90;;;;;;4981981;28;19921;-67
2022/10/27 07:59:12;;;;;;;;;;;13.30;99.90;;;;;;4980684;28;20048;-68
2022/10/27 08:01:37;;;;;;;;;;;13.30;99.90;;;;;;4995285;28;19928;-68
2022/10/27 08:04:03;;;;;;;;;;;13.40;99.90;;;;;;4974399;28;19951;-68
2022/10/27 08:06:28;;;;;;;;;;;13.40;99.90;;;;;;4992644;28;19921;-68
2022/10/27 08:08:54;;;;;;;;;;;13.50;99.90;;;;;;5013346;28;19932;-68
2022/10/27 08:11:21;;;;;;;;;;;13.50;99.90;;;;;;4995647;28;19921;-68
2022/10/27 08:13:47;;;;;;;;;;;13.60;99.90;;;;;;4996035;28;19927;-68
2022/10/27 08:16:12;;;;;;;;;;;13.70;99.90;;;;;;4985429;28;20008;-68
2022/10/27 08:18:38;;;;;;;;;;;13.70;99.90;;;;;;4982633;28;19941;-68
2022/10/27 08:21:04;;;;;;;;;;;13.80;99.90;;;;;;4986180;28;19965;-67
2022/10/27 08:23:30;;;;;;;;;;;13.90;99.90;;;;;;4986103;28;19922;-67
2022/10/27 08:25:56;;;;;;;;;;;14.00;99.90;;;;;;4983686;28;19922;-68
2022/10/27 08:28:23;;;;;;;;;;;14.00;99.90;;;;;;4984437;28;19921;-68
2022/10/27 08:30:50;;;;;;;;;;;14.10;99.90;;;;;;4979839;28;19922;-67
2022/10/27 08:33:15;;;;;;;;;;;14.00;99.90;;;;;;4994042;28;20311;-67
2022/10/27 08:35:41;;;;;;;;;;;14.00;99.90;;;;;;4990809;28;19933;-68
2022/10/27 08:38:09;;;;;;;;;;;14.10;99.90;;;;;;5003710;28;19925;-67
2022/10/27 08:40:55;;;;;;;;;;;14.10;99.90;;;;;;4973319;28;19926;-68
2022/10/27 08:43:27;;;;;;;;;;;14.10;99.90;;;;;;4991526;28;19925;-67
2022/10/27 08:45:55;;;;;;;;;;;14.20;99.90;;;;;;4988423;28;19921;-67
2022/10/27 08:48:24;;;;;;;;;;;14.20;99.90;;;;;;4990265;28;19965;-68
2022/10/27 08:50:49;;;;;;;;;;;14.30;99.90;;;;;;4990896;28;19958;-68
2022/10/27 08:53:17;;;;;;;;;;;14.40;99.90;;;;;;4986943;28;20433;-68
2022/10/27 08:55:51;;;;;;;;;;;14.50;99.90;;;;;;4993772;28;19959;-68
2022/10/27 08:58:35;;;;;;;;;;;14.60;99.90;;;;;;4982831;28;19930;-67
2022/10/27 09:01:20;;;;;;;;;;;14.70;99.90;;;;;;4991696;28;19929;-68
2022/10/27 09:03:53;;;;;;;;;;;14.90;99.90;;;;;;4985873;28;19921;-68
2022/10/27 09:06:23;;;;;;;;;;;15.00;99.90;;;;;;4994336;28;20068;-68
2022/10/27 09:08:54;;;;;;;;;;;15.10;99.90;;;;;;4989937;28;19921;-68
2022/10/27 09:11:29;;;;;;;;;;;15.10;99.90;;;;;;4991736;28;19983;-68
2022/10/27 09:14:13;;;;;;;;;;;15.20;99.90;;;;;;4993511;28;19921;-68
2022/10/27 09:16:40;;;;;;;;;;;15.30;99.90;;;;;;4988007;28;19925;-68
2022/10/27 09:19:10;;;;;;;;;;;15.30;99.90;;;;;;4985875;28;19921;-68
2022/10/27 09:21:35;;;;;;;;;;;15.30;99.90;;;;;;4979810;28;19922;-68
2022/10/27 09:24:04;;;;;;;;;;;15.30;99.90;;;;;;4972559;28;19953;-68
2022/10/27 09:26:31;;;;;;;;;;;15.40;99.90;;;;;;4989547;28;19932;-68
2022/10/27 09:28:59;;;;;;;;;;;15.40;99.90;;;;;;4988562;28;20379;-68
2022/10/27 09:31:44;;;;;;;;;;;15.50;99.90;;;;;;5003483;28;19937;-68
2022/10/27 09:34:16;;;;;;;;;;;15.50;99.90;;;;;;4985268;28;19926;-68
2022/10/27 09:36:42;;;;;;;;;;;15.60;99.90;;;;;;4987167;28;19983;-69
2022/10/27 09:39:08;;;;;;;;;;;15.70;99.90;;;;;;4979023;28;20387;-68
2022/10/27 09:41:33;;;;;;;;;;;15.80;99.90;;;;;;4983763;28;19929;-68
2022/10/27 09:43:59;;;;;;;;;;;15.80;99.90;;;;;;4987156;28;19967;-68
2022/10/27 09:46:28;;;;;;;;;;;16.00;99.90;;;;;;4974690;28;19925;-68
2022/10/27 09:48:56;;;;;;;;;;;16.20;99.90;;;;;;4985097;28;19976;-68
2022/10/27 09:51:25;;;;;;;;;;;16.30;99.90;;;;;;4993763;28;19929;-68
2022/10/27 09:53:51;;;;;;;;;;;16.40;99.90;;;;;;4987586;28;20008;-68
2022/10/27 09:56:23;;;;;;;;;;;16.40;99.90;;;;;;4980659;28;19929;-68
2022/10/27 09:58:56;;;;;;;;;;;16.50;99.90;;;;;;4988646;28;20012;-68
2022/10/27 10:01:22;;;;;;;;;;;16.60;99.90;;;;;;5000077;28;19926;-67
2022/10/27 10:03:53;;;;;;;;;;;16.70;99.90;;;;;;4999860;28;19922;-68
2022/10/27 10:06:23;;;;;;;;;;;16.70;99.90;;;;;;5016297;23;19925;-69
2022/10/27 10:08:49;;;;;;;;;;;16.80;99.90;;;;;;5013910;28;19933;-69
2022/10/27 10:11:20;;;;;;;;;;;16.80;99.90;;;;;;5022287;28;19925;-69
2022/10/27 10:13:59;;;;;;;;;;;16.90;99.90;;;;;;5008309;28;19926;-69
2022/10/27 10:16:27;;;;;;;;;;;16.90;99.90;;;;;;5010186;28;19932;-69
2022/10/27 10:18:59;;;;;;;;;;;17.00;99.90;;;;;;5023346;28;19968;-70
2022/10/27 10:21:25;;;;;;;;;;;17.10;99.90;;;;;;5021776;28;19925;-69
2022/10/27 10:23:52;;;;;;;;;;;17.20;99.90;;;;;;5026891;28;20002;-69
2022/10/27 10:26:25;;;;;;;;;;;17.30;99.90;;;;;;5013696;28;19925;-69
2022/10/27 10:28:53;;;;;;;;;;;17.30;99.90;;;;;;5012221;28;19929;-69
2022/10/27 10:31:23;;;;;;;;;;;17.50;99.90;;;;;;5022913;28;20856;-69
2022/10/27 10:33:49;;;;;;;;;;;17.50;99.90;;;;;;5008030;28;19921;-70
2022/10/27 10:36:24;;;;;;;;;;;17.60;99.90;;;;;;5025994;28;19925;-69
2022/10/27 10:38:50;;;;;;;;;;;17.60;99.90;;;;;;5026807;28;19929;-69
2022/10/27 10:41:17;;;;;;;;;;;17.70;99.90;;;;;;5027526;28;19932;-69
2022/10/27 10:43:42;;;;;;;;;;;17.80;99.90;;;;;;5026691;28;19929;-69
2022/10/27 10:46:21;;;;;;;;;;;17.80;99.90;;;;;;5009927;28;19974;-69
2022/10/27 10:48:57;;;;;;;;;;;17.90;99.90;;;;;;5024683;28;19986;-69
2022/10/27 10:51:24;;;;;;;;;;;17.90;99.90;;;;;;5022575;28;19925;-69
2022/10/27 10:53:50;;;;;;;;;;;18.00;99.90;;;;;;5004643;28;20368;-69
2022/10/27 10:56:18;;;;;;;;;;;18.00;99.90;;;;;;5030657;28;19921;-69
2022/10/27 10:58:45;;;;;;;;;;;18.00;99.90;;;;;;4995427;28;19929;-69
2022/10/27 11:01:10;;;;;;;;;;;18.10;99.90;;;;;;5010282;28;19921;-69
2022/10/27 11:03:39;;;;;;;;;;;18.10;99.90;;;;;;5008177;28;20291;-69
2022/10/27 11:06:05;;;;;;;;;;;18.10;99.90;;;;;;5023208;28;20024;-69
2022/10/27 11:08:40;;;;;;;;;;;18.20;99.90;;;;;;5005268;28;20036;-69
2022/10/27 11:11:06;;;;;;;;;;;;;;;;;;5021991;28;19940;-69
2022/10/27 11:13:32;;;;;;;;;;;;;;;;;;5019761;28;19926;-69
2022/10/27 11:15:57;;;;;;;;;;;;;;;;;;5023192;28;20016;-69
2022/10/27 11:18:23;;;;;;;;;;;;;;;;;;5004290;28;19925;-69
2022/10/27 11:20:49;;;;;;;;;;;;;;;;;;5020424;28;19928;-69
2022/10/27 11:23:15;;;;;;;;;;;;;;;;;;5023365;28;20012;-69
2022/10/27 11:25:41;;;;;;;;;;;18.20;99.90;;;;;;5025921;28;20007;-69
2022/10/27 11:28:20;;;;;;;;;;;18.80;99.90;;;;;;5029637;28;20359;-69
2022/10/27 11:30:51;;;;;;;;;;;18.80;99.90;;;;;;5026957;28;19975;-69
2022/10/27 11:33:20;;;;;;;;;;;18.90;99.90;;;;;;5031204;28;20409;-69
2022/10/27 11:36:18;;;;;;;;;;;18.90;99.90;;;;;;5030546;28;19948;-69
2022/10/27 11:38:44;;;;;;;;;;;;;;;;;;5003029;28;20021;-69
2022/10/27 11:41:24;;;;;;;;;;;18.80;99.90;;;;;;5023328;28;20570;-69
2022/10/27 11:43:55;;;;;;;;;;;18.70;99.90;;;;;;5026526;28;19948;-69
2022/10/27 11:46:25;;;;;;;;;;;18.70;99.90;;;;;;5030005;28;19925;-69
2022/10/27 11:48:52;;;;;;;;;;;18.60;99.90;;;;;;4996431;28;19928;-69
2022/10/27 11:51:23;;;;;;;;;;;18.50;99.90;;;;;;5029749;28;20023;-69
2022/10/27 11:53:51;;;;;;;;;;;18.50;99.90;;;;;;5021742;28;19925;-69
2022/10/27 11:56:29;;;;;;;;;;;18.50;99.90;;;;;;5022617;28;19983;-69
2022/10/27 11:58:57;;;;;;;;;;;18.50;99.90;;;;;;5027154;28;19933;-68
2022/10/27 12:01:30;;;;;;;;;;;18.50;99.90;;;;;;5002674;28;21687;-68
2022/10/27 12:04:08;;;;;;;;;;;18.50;99.90;;;;;;5024292;28;20452;-68
2022/10/27 12:06:37;;;;;;;;;;;18.50;99.90;;;;;;5001764;28;19929;-68
2022/10/27 12:09:21;;;;;;;;;;;18.40;99.90;;;;;;5017975;28;19925;-68
2022/10/27 12:11:51;;;;;;;;;;;18.40;99.90;;;;;;5006801;28;19951;-68
2022/10/27 12:14:26;;;;;;;;;;;18.40;99.90;;;;;;5015296;28;19974;-68
2022/10/27 12:16:55;;;;;;;;;;;18.40;99.90;;;;;;5028912;28;19929;-67
2022/10/27 12:19:26;;;;;;;;;;;18.40;99.90;;;;;;5010031;28;19925;-68
2022/10/27 12:21:53;;;;;;;;;;;18.40;99.90;;;;;;5027795;28;19921;-67
2022/10/27 12:24:48;;;;;;;;;;;18.50;99.90;;;;;;5009394;28;19932;-68
2022/10/27 12:27:17;;;;;;;;;;;18.60;99.90;;;;;;4993233;28;19936;-68
2022/10/27 12:29:48;;;;;;;;;;;18.60;99.90;;;;;;5024147;28;20004;-67
2022/10/27 12:32:17;;;;;;;;;;;18.50;99.90;;;;;;5005979;28;19989;-67
2022/10/27 12:34:48;;;;;;;;;;;18.40;99.90;;;;;;5024090;28;20527;-68
2022/10/27 12:37:19;;;;;;;;;;;18.30;99.90;;;;;;5024988;28;19971;-68
2022/10/27 12:39:44;;;;;;;;;;;18.20;99.90;;;;;;5033138;28;19932;-68
2022/10/27 12:42:30;;;;;;;;;;;18.10;99.90;;;;;;5032123;28;19921;-68
2022/10/27 12:45:07;;;;;;;;;;;18.00;99.90;;;;;;5028907;28;19925;-68
2022/10/27 12:47:38;;;;;;;;;;;18.00;99.90;;;;;;5011743;28;20613;-68
2022/10/27 12:50:06;;;;;;;;;;;17.90;99.90;;;;;;5026482;28;20271;-68
2022/10/27 12:52:33;;;;;;;;;;;;;;;;;;5031668;28;19925;-68
2022/10/27 12:55:00;;;;;;;;;;;;;;;;;;5013363;28;19936;-68
2022/10/27 12:57:26;;;;;;;;;;;;;;;;;;5022447;28;19999;-67
2022/10/27 12:59:52;;;;;;;;;;;;;;;;;;5005845;28;20358;-68
2022/10/27 13:02:18;;;;;;;;;;;;;;;;;;5003814;28;19971;-68
2022/10/27 13:04:44;;;;;;;;;;;;;;;;;;5010502;28;19960;-68
2022/10/27 13:07:09;;;;;;;;;;;;;;;;;;5027670;28;19925;-68
2022/10/27 13:09:35;;;;;;;;;;;;;;;;;;5011280;28;19994;-68
2022/10/27 13:12:01;;;;;;;;;;;;;;;;;;5024812;28;19956;-67
2022/10/27 13:14:27;;;;;;;;;;;;;;;;;;5013233;28;19929;-68
2022/10/27 13:16:53;;;;;;;;;;;;;;;;;;5021742;28;19929;-68
2022/10/27 13:19:19;;;;;;;;;;;;;;;;;;5025620;28;19933;-68
2022/10/27 13:21:45;;;;;;;;;;;;;;;;;;5026370;28;19933;-68
2022/10/27 13:24:11;;;;;;;;;;;;;;;;;;5015254;28;19960;-68
2022/10/27 13:26:37;;;;;;;;;;;;;;;;;;5008291;28;20374;-68
2022/10/27 13:29:03;;;;;;;;;;;;;;;;;;5030391;28;19921;-68
2022/10/27 13:31:29;;;;;;;;;;;;;;;;;;5028639;28;19932;-68
2022/10/27 13:33:54;;;;;;;;;;;;;;;;;;5008093;28;19929;-68
2022/10/27 13:36:20;;;;;;;;;;;;;;;;;;5012367;28;20011;-68
2022/10/27 13:38:46;;;;;;;;;;;;;;;;;;5011480;28;19925;-68
2022/10/27 13:41:12;;;;;;;;;;;;;;;;;;5006756;28;19921;-68
2022/10/27 13:43:38;;;;;;;;;;;;;;;;;;5025934;28;19932;-68
2022/10/27 13:46:04;;;;;;;;;;;;;;;;;;5011363;28;20120;-69
2022/10/27 13:48:30;;;;;;;;;;;;;;;;;;5024406;28;20402;-68
2022/10/27 13:50:56;;;;;;;;;;;;;;;;;;5026790;28;19928;-68
2022/10/27 13:53:22;;;;;;;;;;;;;;;;;;5010288;28;19947;-68
2022/10/27 13:55:48;;;;;;;;;;;;;;;;;;5007116;28;19921;-68
2022/10/27 13:58:14;;;;;;;;;;;;;;;;;;5030135;28;19929;-68
2022/10/27 14:00:40;;;;;;;;;;;;;;;;;;5030516;28;19925;-68
2022/10/27 14:03:06;;;;;;;;;;;;;;;;;;5024388;28;20609;-68
2022/10/27 14:05:32;;;;;;;;;;;;;;;;;;5020169;28;19929;-68
2022/10/27 14:07:58;;;;;;;;;;;;;;;;;;5002742;28;20402;-68
2022/10/27 14:10:24;;;;;;;;;;;;;;;;;;5000104;28;19987;-68
2022/10/27 14:12:50;;;;;;;;;;;;;;;;;;5004764;28;19921;-68
2022/10/27 14:15:16;;;;;;;;;;;;;;;;;;5009032;28;19928;-68
2022/10/27 14:17:41;;;;;;;;;;;;;;;;;;4998322;28;20394;-68
2022/10/27 14:20:14;;;;;;;;;;;17.90;99.90;;;;;;5005464;28;20026;-68
2022/10/27 14:22:42;;;;;;;;;;;18.20;99.90;;;;;;5000673;28;19929;-67
2022/10/27 14:25:37;;;;;;;;;;;18.00;99.90;;;;;;4996721;28;20390;-67
2022/10/27 14:28:04;;;;;;;;;;;17.90;99.90;;;;;;4980144;28;20391;-67
2022/10/27 14:30:29;;;;;;;;;;;17.80;99.90;;;;;;5004946;28;19940;-67
2022/10/27 14:32:55;;;;;;;;;;;17.70;99.90;;;;;;5016071;28;19925;-68
2022/10/27 14:35:23;;;;;;;;;;;17.60;99.90;;;;;;5003353;28;19929;-68
2022/10/27 14:37:49;;;;;;;;;;;17.50;99.90;;;;;;4996086;28;20531;-67